sensor_id;sensor_type;location;lat;lon;timestamp;P1;durP1;ratioP1;P2;durP2;ratioP2
32393;SDS011;18853;45.426;9.206;2024-02-23T00:01:27;22.10;;;13.18;;
32393;SDS011;18853;45.426;9.206;2024-02-23T00:03:53;20.08;;;14.75;;
32393;SDS011;18853;45.426;9.206;2024-02-23T00:06:20;19.60;;;14.23;;
32393;SDS011;18853;45.426;9.206;2024-02-23T00:08:46;19.05;;;14.85;;
32393;SDS011;18853;45.426;9.206;2024-02-23T00:11:11;22.10;;;14.63;;
32393;SDS011;18853;45.426;9.206;2024-02-23T00:13:37;19.13;;;14.63;;
32393;SDS011;18853;45.426;9.206;2024-02-23T00:16:03;20.33;;;14.73;;
32393;SDS011;18853;45.426;9.206;2024-02-23T00:18:29;20.75;;;14.68;;
32393;SDS011;18853;45.426;9.206;2024-02-23T00:20:54;20.88;;;15.02;;
32393;SDS011;18853;45.426;9.206;2024-02-23T00:23:21;24.33;;;16.20;;
32393;SDS011;18853;45.426;9.206;2024-02-23T00:25:46;19.88;;;15.10;;
32393;SDS011;18853;45.426;9.206;2024-02-23T00:28:12;20.58;;;15.23;;
32393;SDS011;18853;45.426;9.206;2024-02-23T00:30:38;19.80;;;14.68;;
32393;SDS011;18853;45.426;9.206;2024-02-23T00:33:03;19.40;;;14.50;;
32393;SDS011;18853;45.426;9.206;2024-02-23T00:35:29;19.38;;;14.60;;
32393;SDS011;18853;45.426;9.206;2024-02-23T00:37:55;20.42;;;14.50;;
32393;SDS011;18853;45.426;9.206;2024-02-23T00:40:21;21.30;;;15.00;;
32393;SDS011;18853;45.426;9.206;2024-02-23T00:42:48;17.92;;;13.60;;
32393;SDS011;18853;45.426;9.206;2024-02-23T00:45:14;18.80;;;14.07;;
32393;SDS011;18853;45.426;9.206;2024-02-23T00:47:39;19.52;;;13.82;;
32393;SDS011;18853;45.426;9.206;2024-02-23T00:50:05;17.55;;;12.85;;
32393;SDS011;18853;45.426;9.206;2024-02-23T00:52:31;15.40;;;12.02;;
32393;SDS011;18853;45.426;9.206;2024-02-23T00:54:57;14.85;;;11.02;;
32393;SDS011;18853;45.426;9.206;2024-02-23T00:57:22;14.32;;;10.52;;
32393;SDS011;18853;45.426;9.206;2024-02-23T00:59:52;14.82;;;11.02;;
32393;SDS011;18853;45.426;9.206;2024-02-23T01:02:18;13.85;;;10.00;;
32393;SDS011;18853;45.426;9.206;2024-02-23T01:04:43;13.75;;;9.18;;
32393;SDS011;18853;45.426;9.206;2024-02-23T01:07:09;10.73;;;8.10;;
32393;SDS011;18853;45.426;9.206;2024-02-23T01:09:35;13.45;;;9.13;;
32393;SDS011;18853;45.426;9.206;2024-02-23T01:12:01;10.65;;;8.27;;
32393;SDS011;18853;45.426;9.206;2024-02-23T01:14:27;12.30;;;9.13;;
32393;SDS011;18853;45.426;9.206;2024-02-23T01:16:52;10.48;;;7.97;;
32393;SDS011;18853;45.426;9.206;2024-02-23T01:19:18;11.38;;;7.78;;
32393;SDS011;18853;45.426;9.206;2024-02-23T01:21:43;10.80;;;8.10;;
32393;SDS011;18853;45.426;9.206;2024-02-23T01:24:09;10.80;;;8.00;;
32393;SDS011;18853;45.426;9.206;2024-02-23T01:26:35;11.95;;;7.85;;
32393;SDS011;18853;45.426;9.206;2024-02-23T01:29:01;12.13;;;8.57;;
32393;SDS011;18853;45.426;9.206;2024-02-23T01:31:28;11.63;;;8.30;;
32393;SDS011;18853;45.426;9.206;2024-02-23T01:33:54;10.88;;;7.85;;
32393;SDS011;18853;45.426;9.206;2024-02-23T01:36:19;11.60;;;8.27;;
32393;SDS011;18853;45.426;9.206;2024-02-23T01:38:45;12.70;;;8.25;;
32393;SDS011;18853;45.426;9.206;2024-02-23T01:41:10;11.43;;;8.82;;
32393;SDS011;18853;45.426;9.206;2024-02-23T01:43:37;11.05;;;7.60;;
32393;SDS011;18853;45.426;9.206;2024-02-23T01:46:02;13.63;;;8.43;;
32393;SDS011;18853;45.426;9.206;2024-02-23T01:48:31;10.55;;;7.70;;
32393;SDS011;18853;45.426;9.206;2024-02-23T01:50:58;10.55;;;7.65;;
32393;SDS011;18853;45.426;9.206;2024-02-23T01:53:23;12.20;;;8.15;;
32393;SDS011;18853;45.426;9.206;2024-02-23T01:55:51;10.55;;;6.68;;
32393;SDS011;18853;45.426;9.206;2024-02-23T01:58:18;10.60;;;6.97;;
32393;SDS011;18853;45.426;9.206;2024-02-23T02:00:44;8.82;;;7.10;;
32393;SDS011;18853;45.426;9.206;2024-02-23T02:03:10;10.82;;;7.63;;
32393;SDS011;18853;45.426;9.206;2024-02-23T02:05:36;11.40;;;7.20;;
32393;SDS011;18853;45.426;9.206;2024-02-23T02:08:02;10.75;;;6.90;;
32393;SDS011;18853;45.426;9.206;2024-02-23T02:10:29;10.23;;;6.85;;
32393;SDS011;18853;45.426;9.206;2024-02-23T02:12:54;10.40;;;6.50;;
32393;SDS011;18853;45.426;9.206;2024-02-23T02:15:20;11.70;;;6.47;;
32393;SDS011;18853;45.426;9.206;2024-02-23T02:17:47;9.63;;;5.72;;
32393;SDS011;18853;45.426;9.206;2024-02-23T02:20:13;8.23;;;5.70;;
32393;SDS011;18853;45.426;9.206;2024-02-23T02:22:39;10.27;;;5.55;;
32393;SDS011;18853;45.426;9.206;2024-02-23T02:25:05;7.30;;;5.40;;
32393;SDS011;18853;45.426;9.206;2024-02-23T02:27:31;6.65;;;4.80;;
32393;SDS011;18853;45.426;9.206;2024-02-23T02:29:57;6.93;;;4.95;;
32393;SDS011;18853;45.426;9.206;2024-02-23T02:32:22;7.97;;;4.75;;
32393;SDS011;18853;45.426;9.206;2024-02-23T02:34:48;7.47;;;4.85;;
32393;SDS011;18853;45.426;9.206;2024-02-23T02:37:14;6.72;;;4.40;;
32393;SDS011;18853;45.426;9.206;2024-02-23T02:39:40;7.45;;;4.82;;
32393;SDS011;18853;45.426;9.206;2024-02-23T02:42:06;5.90;;;4.03;;
32393;SDS011;18853;45.426;9.206;2024-02-23T02:44:31;5.68;;;4.25;;
32393;SDS011;18853;45.426;9.206;2024-02-23T02:46:57;6.82;;;4.15;;
32393;SDS011;18853;45.426;9.206;2024-02-23T02:49:23;6.80;;;3.83;;
32393;SDS011;18853;45.426;9.206;2024-02-23T02:51:49;5.75;;;3.53;;
32393;SDS011;18853;45.426;9.206;2024-02-23T02:54:14;4.85;;;3.53;;
32393;SDS011;18853;45.426;9.206;2024-02-23T02:56:44;5.22;;;3.03;;
32393;SDS011;18853;45.426;9.206;2024-02-23T02:59:13;5.38;;;2.95;;
32393;SDS011;18853;45.426;9.206;2024-02-23T03:01:39;3.88;;;2.58;;
32393;SDS011;18853;45.426;9.206;2024-02-23T03:04:04;5.25;;;2.95;;
32393;SDS011;18853;45.426;9.206;2024-02-23T03:06:30;5.57;;;3.10;;
32393;SDS011;18853;45.426;9.206;2024-02-23T03:08:56;4.75;;;3.05;;
32393;SDS011;18853;45.426;9.206;2024-02-23T03:11:21;4.28;;;2.75;;
32393;SDS011;18853;45.426;9.206;2024-02-23T03:13:47;5.03;;;2.92;;
32393;SDS011;18853;45.426;9.206;2024-02-23T03:16:20;5.75;;;2.83;;
32393;SDS011;18853;45.426;9.206;2024-02-23T03:18:48;4.10;;;2.53;;
32393;SDS011;18853;45.426;9.206;2024-02-23T03:21:14;5.35;;;3.00;;
32393;SDS011;18853;45.426;9.206;2024-02-23T03:23:40;4.07;;;2.90;;
32393;SDS011;18853;45.426;9.206;2024-02-23T03:26:06;5.97;;;3.38;;
32393;SDS011;18853;45.426;9.206;2024-02-23T03:28:32;5.60;;;3.85;;
32393;SDS011;18853;45.426;9.206;2024-02-23T03:30:58;4.97;;;3.00;;
32393;SDS011;18853;45.426;9.206;2024-02-23T03:33:24;4.07;;;2.85;;
32393;SDS011;18853;45.426;9.206;2024-02-23T03:35:50;6.95;;;4.10;;
32393;SDS011;18853;45.426;9.206;2024-02-23T03:38:15;4.65;;;3.05;;
32393;SDS011;18853;45.426;9.206;2024-02-23T03:40:41;5.43;;;2.72;;
32393;SDS011;18853;45.426;9.206;2024-02-23T03:43:07;8.27;;;3.05;;
32393;SDS011;18853;45.426;9.206;2024-02-23T03:45:33;5.80;;;2.75;;
32393;SDS011;18853;45.426;9.206;2024-02-23T03:47:58;4.63;;;2.67;;
32393;SDS011;18853;45.426;9.206;2024-02-23T03:50:25;5.45;;;2.90;;
32393;SDS011;18853;45.426;9.206;2024-02-23T03:52:50;4.43;;;2.78;;
32393;SDS011;18853;45.426;9.206;2024-02-23T03:55:16;4.85;;;3.17;;
32393;SDS011;18853;45.426;9.206;2024-02-23T03:57:42;4.88;;;3.03;;
32393;SDS011;18853;45.426;9.206;2024-02-23T04:00:07;6.78;;;3.13;;
32393;SDS011;18853;45.426;9.206;2024-02-23T04:02:34;5.22;;;2.97;;
32393;SDS011;18853;45.426;9.206;2024-02-23T04:04:59;4.57;;;3.00;;
32393;SDS011;18853;45.426;9.206;2024-02-23T04:07:25;5.60;;;3.10;;
32393;SDS011;18853;45.426;9.206;2024-02-23T04:09:50;6.85;;;3.60;;
32393;SDS011;18853;45.426;9.206;2024-02-23T04:12:19;6.47;;;3.58;;
32393;SDS011;18853;45.426;9.206;2024-02-23T04:14:48;6.03;;;3.40;;
32393;SDS011;18853;45.426;9.206;2024-02-23T04:17:13;5.68;;;3.78;;
32393;SDS011;18853;45.426;9.206;2024-02-23T04:19:40;4.93;;;3.30;;
32393;SDS011;18853;45.426;9.206;2024-02-23T04:22:07;6.07;;;4.00;;
32393;SDS011;18853;45.426;9.206;2024-02-23T04:24:35;5.35;;;3.55;;
32393;SDS011;18853;45.426;9.206;2024-02-23T04:27:01;5.95;;;3.60;;
32393;SDS011;18853;45.426;9.206;2024-02-23T04:29:27;5.25;;;3.90;;
32393;SDS011;18853;45.426;9.206;2024-02-23T04:31:52;5.15;;;3.40;;
32393;SDS011;18853;45.426;9.206;2024-02-23T04:34:18;6.13;;;3.60;;
32393;SDS011;18853;45.426;9.206;2024-02-23T04:36:43;5.88;;;3.58;;
32393;SDS011;18853;45.426;9.206;2024-02-23T04:39:09;5.40;;;3.47;;
32393;SDS011;18853;45.426;9.206;2024-02-23T04:41:34;6.85;;;3.50;;
32393;SDS011;18853;45.426;9.206;2024-02-23T04:44:00;5.05;;;3.63;;
32393;SDS011;18853;45.426;9.206;2024-02-23T04:46:26;6.18;;;3.97;;
32393;SDS011;18853;45.426;9.206;2024-02-23T04:48:52;6.88;;;4.60;;
32393;SDS011;18853;45.426;9.206;2024-02-23T04:51:17;9.15;;;4.90;;
32393;SDS011;18853;45.426;9.206;2024-02-23T04:53:44;6.07;;;4.05;;
32393;SDS011;18853;45.426;9.206;2024-02-23T04:56:09;7.28;;;4.32;;
32393;SDS011;18853;45.426;9.206;2024-02-23T04:58:35;7.30;;;4.40;;
32393;SDS011;18853;45.426;9.206;2024-02-23T05:01:02;7.40;;;4.25;;
32393;SDS011;18853;45.426;9.206;2024-02-23T05:03:28;9.50;;;4.90;;
32393;SDS011;18853;45.426;9.206;2024-02-23T05:05:54;6.55;;;4.30;;
32393;SDS011;18853;45.426;9.206;2024-02-23T05:08:20;8.00;;;4.80;;
32393;SDS011;18853;45.426;9.206;2024-02-23T05:10:46;7.35;;;5.20;;
32393;SDS011;18853;45.426;9.206;2024-02-23T05:13:12;8.07;;;5.25;;
32393;SDS011;18853;45.426;9.206;2024-02-23T05:15:38;8.52;;;4.82;;
32393;SDS011;18853;45.426;9.206;2024-02-23T05:18:03;8.13;;;4.93;;
32393;SDS011;18853;45.426;9.206;2024-02-23T05:20:30;7.72;;;5.15;;
32393;SDS011;18853;45.426;9.206;2024-02-23T05:22:55;6.95;;;4.88;;
32393;SDS011;18853;45.426;9.206;2024-02-23T05:25:21;8.43;;;4.95;;
32393;SDS011;18853;45.426;9.206;2024-02-23T05:27:47;8.55;;;5.40;;
32393;SDS011;18853;45.426;9.206;2024-02-23T05:30:12;6.80;;;5.22;;
32393;SDS011;18853;45.426;9.206;2024-02-23T05:32:38;7.40;;;5.55;;
32393;SDS011;18853;45.426;9.206;2024-02-23T05:35:04;8.32;;;5.53;;
32393;SDS011;18853;45.426;9.206;2024-02-23T05:37:30;8.57;;;5.90;;
32393;SDS011;18853;45.426;9.206;2024-02-23T05:39:56;7.15;;;5.28;;
32393;SDS011;18853;45.426;9.206;2024-02-23T05:42:22;8.57;;;5.90;;
32393;SDS011;18853;45.426;9.206;2024-02-23T05:44:48;7.32;;;5.28;;
32393;SDS011;18853;45.426;9.206;2024-02-23T05:47:13;7.22;;;5.30;;
32393;SDS011;18853;45.426;9.206;2024-02-23T05:49:39;7.93;;;5.63;;
32393;SDS011;18853;45.426;9.206;2024-02-23T05:52:05;7.57;;;5.57;;
32393;SDS011;18853;45.426;9.206;2024-02-23T05:54:31;9.23;;;5.85;;
32393;SDS011;18853;45.426;9.206;2024-02-23T05:56:57;7.75;;;5.75;;
32393;SDS011;18853;45.426;9.206;2024-02-23T05:59:22;9.10;;;5.57;;
32393;SDS011;18853;45.426;9.206;2024-02-23T06:01:48;7.40;;;5.78;;
32393;SDS011;18853;45.426;9.206;2024-02-23T06:04:13;6.95;;;5.40;;
32393;SDS011;18853;45.426;9.206;2024-02-23T06:06:42;8.85;;;6.22;;
32393;SDS011;18853;45.426;9.206;2024-02-23T06:09:10;8.70;;;6.13;;
32393;SDS011;18853;45.426;9.206;2024-02-23T06:11:36;9.48;;;7.63;;
32393;SDS011;18853;45.426;9.206;2024-02-23T06:14:01;8.55;;;6.28;;
32393;SDS011;18853;45.426;9.206;2024-02-23T06:16:27;9.50;;;6.35;;
32393;SDS011;18853;45.426;9.206;2024-02-23T06:18:53;8.55;;;6.25;;
32393;SDS011;18853;45.426;9.206;2024-02-23T06:21:18;8.38;;;6.18;;
32393;SDS011;18853;45.426;9.206;2024-02-23T06:23:44;8.95;;;6.03;;
32393;SDS011;18853;45.426;9.206;2024-02-23T06:26:10;8.75;;;6.53;;
32393;SDS011;18853;45.426;9.206;2024-02-23T06:28:36;7.90;;;6.60;;
32393;SDS011;18853;45.426;9.206;2024-02-23T06:31:04;7.57;;;5.75;;
32393;SDS011;18853;45.426;9.206;2024-02-23T06:33:33;9.77;;;6.60;;
32393;SDS011;18853;45.426;9.206;2024-02-23T06:35:58;9.07;;;5.90;;
32393;SDS011;18853;45.426;9.206;2024-02-23T06:38:24;8.93;;;6.13;;
32393;SDS011;18853;45.426;9.206;2024-02-23T06:40:49;8.88;;;6.05;;
32393;SDS011;18853;45.426;9.206;2024-02-23T06:43:16;11.07;;;8.25;;
32393;SDS011;18853;45.426;9.206;2024-02-23T06:45:41;7.50;;;6.45;;
32393;SDS011;18853;45.426;9.206;2024-02-23T06:48:07;6.55;;;5.85;;
32393;SDS011;18853;45.426;9.206;2024-02-23T06:50:33;6.68;;;5.72;;
32393;SDS011;18853;45.426;9.206;2024-02-23T06:53:00;6.78;;;6.07;;
32393;SDS011;18853;45.426;9.206;2024-02-23T06:55:25;7.75;;;5.82;;
32393;SDS011;18853;45.426;9.206;2024-02-23T06:57:51;8.50;;;6.03;;
32393;SDS011;18853;45.426;9.206;2024-02-23T07:00:16;6.85;;;5.57;;
32393;SDS011;18853;45.426;9.206;2024-02-23T07:02:42;8.18;;;5.68;;
32393;SDS011;18853;45.426;9.206;2024-02-23T07:05:08;7.35;;;5.72;;
32393;SDS011;18853;45.426;9.206;2024-02-23T07:07:34;7.13;;;5.90;;
32393;SDS011;18853;45.426;9.206;2024-02-23T07:10:00;6.53;;;5.72;;
32393;SDS011;18853;45.426;9.206;2024-02-23T07:12:25;8.18;;;6.38;;
32393;SDS011;18853;45.426;9.206;2024-02-23T07:14:53;6.78;;;5.85;;
32393;SDS011;18853;45.426;9.206;2024-02-23T07:17:20;7.07;;;5.55;;
32393;SDS011;18853;45.426;9.206;2024-02-23T07:19:45;7.70;;;5.97;;
32393;SDS011;18853;45.426;9.206;2024-02-23T07:22:11;7.72;;;6.20;;
32393;SDS011;18853;45.426;9.206;2024-02-23T07:24:40;7.32;;;5.28;;
32393;SDS011;18853;45.426;9.206;2024-02-23T07:27:06;8.93;;;5.50;;
32393;SDS011;18853;45.426;9.206;2024-02-23T07:29:32;8.07;;;5.90;;
32393;SDS011;18853;45.426;9.206;2024-02-23T07:31:57;7.18;;;5.95;;
32393;SDS011;18853;45.426;9.206;2024-02-23T07:34:23;8.15;;;5.90;;
32393;SDS011;18853;45.426;9.206;2024-02-23T07:36:51;6.63;;;5.50;;
32393;SDS011;18853;45.426;9.206;2024-02-23T07:39:17;7.45;;;5.47;;
32393;SDS011;18853;45.426;9.206;2024-02-23T07:41:43;7.22;;;5.53;;
32393;SDS011;18853;45.426;9.206;2024-02-23T07:44:08;5.88;;;5.18;;
32393;SDS011;18853;45.426;9.206;2024-02-23T07:46:34;6.78;;;5.60;;
32393;SDS011;18853;45.426;9.206;2024-02-23T07:49:00;7.85;;;6.25;;
32393;SDS011;18853;45.426;9.206;2024-02-23T07:51:25;8.40;;;5.80;;
32393;SDS011;18853;45.426;9.206;2024-02-23T07:53:51;6.90;;;6.10;;
32393;SDS011;18853;45.426;9.206;2024-02-23T07:56:16;7.43;;;5.97;;
32393;SDS011;18853;45.426;9.206;2024-02-23T07:58:42;10.23;;;6.07;;
32393;SDS011;18853;45.426;9.206;2024-02-23T08:01:08;7.50;;;6.15;;
32393;SDS011;18853;45.426;9.206;2024-02-23T08:03:33;8.65;;;6.45;;
32393;SDS011;18853;45.426;9.206;2024-02-23T08:05:59;10.63;;;6.53;;
32393;SDS011;18853;45.426;9.206;2024-02-23T08:08:25;8.82;;;6.55;;
32393;SDS011;18853;45.426;9.206;2024-02-23T08:10:52;9.25;;;7.13;;
32393;SDS011;18853;45.426;9.206;2024-02-23T08:13:18;8.88;;;6.50;;
32393;SDS011;18853;45.426;9.206;2024-02-23T08:15:44;9.98;;;6.93;;
32393;SDS011;18853;45.426;9.206;2024-02-23T08:18:10;8.43;;;6.78;;
32393;SDS011;18853;45.426;9.206;2024-02-23T08:20:35;8.27;;;6.80;;
32393;SDS011;18853;45.426;9.206;2024-02-23T08:23:01;27.15;;;16.77;;
32393;SDS011;18853;45.426;9.206;2024-02-23T08:25:27;6.90;;;5.45;;
32393;SDS011;18853;45.426;9.206;2024-02-23T08:27:56;8.05;;;4.97;;
32393;SDS011;18853;45.426;9.206;2024-02-23T08:30:22;6.40;;;4.80;;
32393;SDS011;18853;45.426;9.206;2024-02-23T08:32:48;8.27;;;6.18;;
32393;SDS011;18853;45.426;9.206;2024-02-23T08:35:13;6.80;;;4.63;;
32393;SDS011;18853;45.426;9.206;2024-02-23T08:37:40;5.70;;;4.32;;
32393;SDS011;18853;45.426;9.206;2024-02-23T08:40:07;6.78;;;4.20;;
32393;SDS011;18853;45.426;9.206;2024-02-23T08:42:33;7.60;;;3.92;;
32393;SDS011;18853;45.426;9.206;2024-02-23T08:44:59;5.68;;;3.60;;
32393;SDS011;18853;45.426;9.206;2024-02-23T08:47:24;6.72;;;3.80;;
32393;SDS011;18853;45.426;9.206;2024-02-23T08:49:53;8.55;;;4.45;;
32393;SDS011;18853;45.426;9.206;2024-02-23T08:52:18;5.90;;;4.03;;
32393;SDS011;18853;45.426;9.206;2024-02-23T08:54:44;6.35;;;4.30;;
32393;SDS011;18853;45.426;9.206;2024-02-23T08:57:09;5.30;;;3.60;;
32393;SDS011;18853;45.426;9.206;2024-02-23T08:59:35;5.95;;;3.72;;
32393;SDS011;18853;45.426;9.206;2024-02-23T09:02:01;7.03;;;3.58;;
32393;SDS011;18853;45.426;9.206;2024-02-23T09:04:27;6.25;;;3.83;;
32393;SDS011;18853;45.426;9.206;2024-02-23T09:06:53;6.63;;;4.20;;
32393;SDS011;18853;45.426;9.206;2024-02-23T09:09:19;6.30;;;3.65;;
32393;SDS011;18853;45.426;9.206;2024-02-23T09:11:45;7.80;;;4.85;;
32393;SDS011;18853;45.426;9.206;2024-02-23T09:14:10;7.32;;;5.05;;
32393;SDS011;18853;45.426;9.206;2024-02-23T09:16:36;5.95;;;4.38;;
32393;SDS011;18853;45.426;9.206;2024-02-23T09:19:01;7.60;;;4.40;;
32393;SDS011;18853;45.426;9.206;2024-02-23T09:21:27;6.35;;;4.20;;
32393;SDS011;18853;45.426;9.206;2024-02-23T09:23:52;6.47;;;4.70;;
32393;SDS011;18853;45.426;9.206;2024-02-23T09:26:18;6.70;;;4.28;;
32393;SDS011;18853;45.426;9.206;2024-02-23T09:28:43;7.82;;;5.03;;
32393;SDS011;18853;45.426;9.206;2024-02-23T09:31:10;7.93;;;5.50;;
32393;SDS011;18853;45.426;9.206;2024-02-23T09:33:36;8.43;;;6.75;;
32393;SDS011;18853;45.426;9.206;2024-02-23T09:36:01;7.32;;;5.82;;
32393;SDS011;18853;45.426;9.206;2024-02-23T09:38:27;8.43;;;6.07;;
32393;SDS011;18853;45.426;9.206;2024-02-23T09:40:53;8.02;;;6.60;;
32393;SDS011;18853;45.426;9.206;2024-02-23T09:43:20;8.40;;;6.65;;
32393;SDS011;18853;45.426;9.206;2024-02-23T09:45:47;7.38;;;5.93;;
32393;SDS011;18853;45.426;9.206;2024-02-23T09:48:17;6.50;;;5.43;;
32393;SDS011;18853;45.426;9.206;2024-02-23T09:50:44;10.23;;;6.43;;
32393;SDS011;18853;45.426;9.206;2024-02-23T09:53:11;9.20;;;6.00;;
32393;SDS011;18853;45.426;9.206;2024-02-23T09:55:38;7.95;;;6.20;;
32393;SDS011;18853;45.426;9.206;2024-02-23T09:58:03;7.47;;;5.88;;
32393;SDS011;18853;45.426;9.206;2024-02-23T10:00:31;9.10;;;6.05;;
32393;SDS011;18853;45.426;9.206;2024-02-23T10:02:58;7.05;;;5.05;;
32393;SDS011;18853;45.426;9.206;2024-02-23T10:05:26;7.05;;;5.05;;
32393;SDS011;18853;45.426;9.206;2024-02-23T10:07:55;6.72;;;4.50;;
32393;SDS011;18853;45.426;9.206;2024-02-23T10:10:45;7.43;;;4.55;;
32393;SDS011;18853;45.426;9.206;2024-02-23T10:13:10;5.95;;;4.47;;
32393;SDS011;18853;45.426;9.206;2024-02-23T10:15:36;5.55;;;4.20;;
32393;SDS011;18853;45.426;9.206;2024-02-23T10:18:02;4.95;;;4.00;;
32393;SDS011;18853;45.426;9.206;2024-02-23T10:20:28;5.72;;;4.22;;
32393;SDS011;18853;45.426;9.206;2024-02-23T10:22:53;6.07;;;4.55;;
32393;SDS011;18853;45.426;9.206;2024-02-23T10:25:19;8.18;;;4.40;;
32393;SDS011;18853;45.426;9.206;2024-02-23T10:27:45;8.98;;;4.57;;
32393;SDS011;18853;45.426;9.206;2024-02-23T10:30:13;8.27;;;4.85;;
32393;SDS011;18853;45.426;9.206;2024-02-23T10:32:40;6.20;;;4.53;;
32393;SDS011;18853;45.426;9.206;2024-02-23T10:35:16;7.03;;;4.85;;
32393;SDS011;18853;45.426;9.206;2024-02-23T10:37:44;8.45;;;5.90;;
32393;SDS011;18853;45.426;9.206;2024-02-23T10:40:16;7.72;;;5.60;;
32393;SDS011;18853;45.426;9.206;2024-02-23T10:42:43;7.88;;;5.88;;
32393;SDS011;18853;45.426;9.206;2024-02-23T10:45:12;8.35;;;6.20;;
32393;SDS011;18853;45.426;9.206;2024-02-23T10:47:40;8.38;;;6.70;;
32393;SDS011;18853;45.426;9.206;2024-02-23T10:50:07;15.40;;;6.53;;
32393;SDS011;18853;45.426;9.206;2024-02-23T10:52:34;7.90;;;6.65;;
32393;SDS011;18853;45.426;9.206;2024-02-23T10:55:00;8.27;;;7.25;;
32393;SDS011;18853;45.426;9.206;2024-02-23T10:57:30;10.35;;;8.43;;
32393;SDS011;18853;45.426;9.206;2024-02-23T10:59:57;10.43;;;9.18;;
32393;SDS011;18853;45.426;9.206;2024-02-23T11:02:23;11.82;;;9.25;;
32393;SDS011;18853;45.426;9.206;2024-02-23T11:04:50;12.65;;;10.00;;
32393;SDS011;18853;45.426;9.206;2024-02-23T11:07:20;10.98;;;9.80;;
32393;SDS011;18853;45.426;9.206;2024-02-23T11:09:51;13.77;;;11.55;;
32393;SDS011;18853;45.426;9.206;2024-02-23T11:12:24;13.57;;;11.40;;
32393;SDS011;18853;45.426;9.206;2024-02-23T11:14:51;13.25;;;11.15;;
32393;SDS011;18853;45.426;9.206;2024-02-23T11:17:21;15.90;;;12.00;;
32393;SDS011;18853;45.426;9.206;2024-02-23T11:19:49;16.85;;;13.02;;
32393;SDS011;18853;45.426;9.206;2024-02-23T11:22:27;14.48;;;12.73;;
32393;SDS011;18853;45.426;9.206;2024-02-23T11:24:59;16.63;;;13.48;;
32393;SDS011;18853;45.426;9.206;2024-02-23T11:27:32;16.77;;;13.45;;
32393;SDS011;18853;45.426;9.206;2024-02-23T11:30:02;19.58;;;14.63;;
32393;SDS011;18853;45.426;9.206;2024-02-23T11:32:37;17.60;;;15.20;;
32393;SDS011;18853;45.426;9.206;2024-02-23T11:35:07;17.83;;;15.93;;
32393;SDS011;18853;45.426;9.206;2024-02-23T11:37:48;17.27;;;15.38;;
32393;SDS011;18853;45.426;9.206;2024-02-23T11:40:27;19.15;;;14.75;;
32393;SDS011;18853;45.426;9.206;2024-02-23T11:42:56;17.08;;;14.02;;
32393;SDS011;18853;45.426;9.206;2024-02-23T11:45:23;18.10;;;15.48;;
32393;SDS011;18853;45.426;9.206;2024-02-23T11:47:50;18.02;;;14.50;;
32393;SDS011;18853;45.426;9.206;2024-02-23T11:50:15;17.30;;;14.52;;
32393;SDS011;18853;45.426;9.206;2024-02-23T11:52:44;19.00;;;16.33;;
32393;SDS011;18853;45.426;9.206;2024-02-23T11:55:11;22.38;;;17.38;;
32393;SDS011;18853;45.426;9.206;2024-02-23T11:57:37;20.27;;;18.05;;
32393;SDS011;18853;45.426;9.206;2024-02-23T12:00:04;20.70;;;17.17;;
32393;SDS011;18853;45.426;9.206;2024-02-23T12:02:37;19.75;;;17.05;;
32393;SDS011;18853;45.426;9.206;2024-02-23T12:05:03;21.02;;;17.95;;
32393;SDS011;18853;45.426;9.206;2024-02-23T12:07:29;21.20;;;18.90;;
32393;SDS011;18853;45.426;9.206;2024-02-23T12:09:56;21.52;;;19.08;;
32393;SDS011;18853;45.426;9.206;2024-02-23T12:12:22;20.85;;;18.55;;
32393;SDS011;18853;45.426;9.206;2024-02-23T12:14:48;20.45;;;18.23;;
32393;SDS011;18853;45.426;9.206;2024-02-23T12:17:14;23.95;;;19.83;;
32393;SDS011;18853;45.426;9.206;2024-02-23T12:19:40;23.50;;;19.23;;
32393;SDS011;18853;45.426;9.206;2024-02-23T12:22:05;20.92;;;18.50;;
32393;SDS011;18853;45.426;9.206;2024-02-23T12:24:31;19.73;;;17.63;;
32393;SDS011;18853;45.426;9.206;2024-02-23T12:26:57;21.55;;;18.10;;
32393;SDS011;18853;45.426;9.206;2024-02-23T12:29:23;21.05;;;17.20;;
32393;SDS011;18853;45.426;9.206;2024-02-23T12:31:49;20.80;;;17.50;;
32393;SDS011;18853;45.426;9.206;2024-02-23T12:34:14;20.95;;;17.42;;
32393;SDS011;18853;45.426;9.206;2024-02-23T12:36:40;19.88;;;17.15;;
32393;SDS011;18853;45.426;9.206;2024-02-23T12:39:06;19.30;;;15.90;;
32393;SDS011;18853;45.426;9.206;2024-02-23T12:41:32;18.17;;;15.35;;
32393;SDS011;18853;45.426;9.206;2024-02-23T12:43:58;19.38;;;14.95;;
32393;SDS011;18853;45.426;9.206;2024-02-23T12:46:24;18.00;;;15.23;;
32393;SDS011;18853;45.426;9.206;2024-02-23T12:48:49;15.45;;;13.85;;
32393;SDS011;18853;45.426;9.206;2024-02-23T12:51:15;16.00;;;13.30;;
32393;SDS011;18853;45.426;9.206;2024-02-23T12:53:41;17.27;;;13.45;;
32393;SDS011;18853;45.426;9.206;2024-02-23T12:56:11;16.98;;;14.00;;
32393;SDS011;18853;45.426;9.206;2024-02-23T12:58:41;16.48;;;14.35;;
32393;SDS011;18853;45.426;9.206;2024-02-23T13:01:08;16.92;;;13.73;;
32393;SDS011;18853;45.426;9.206;2024-02-23T13:03:35;19.10;;;14.05;;
32393;SDS011;18853;45.426;9.206;2024-02-23T13:06:02;18.95;;;14.57;;
32393;SDS011;18853;45.426;9.206;2024-02-23T13:08:28;16.98;;;14.65;;
32393;SDS011;18853;45.426;9.206;2024-02-23T13:10:54;19.10;;;15.43;;
32393;SDS011;18853;45.426;9.206;2024-02-23T13:13:20;18.45;;;14.55;;
32393;SDS011;18853;45.426;9.206;2024-02-23T13:15:46;16.33;;;14.65;;
32393;SDS011;18853;45.426;9.206;2024-02-23T13:18:13;18.30;;;15.57;;
32393;SDS011;18853;45.426;9.206;2024-02-23T13:20:39;18.90;;;15.73;;
32393;SDS011;18853;45.426;9.206;2024-02-23T13:23:06;18.35;;;15.60;;
32393;SDS011;18853;45.426;9.206;2024-02-23T13:25:33;20.80;;;17.25;;
32393;SDS011;18853;45.426;9.206;2024-02-23T13:27:59;20.65;;;17.02;;
32393;SDS011;18853;45.426;9.206;2024-02-23T13:30:24;19.95;;;16.45;;
32393;SDS011;18853;45.426;9.206;2024-02-23T13:32:50;20.40;;;16.42;;
32393;SDS011;18853;45.426;9.206;2024-02-23T13:35:16;20.13;;;16.38;;
32393;SDS011;18853;45.426;9.206;2024-02-23T13:37:42;19.33;;;16.95;;
32393;SDS011;18853;45.426;9.206;2024-02-23T13:40:08;18.08;;;15.30;;
32393;SDS011;18853;45.426;9.206;2024-02-23T13:42:34;18.88;;;16.65;;
32393;SDS011;18853;45.426;9.206;2024-02-23T13:45:01;21.15;;;16.33;;
32393;SDS011;18853;45.426;9.206;2024-02-23T13:47:26;22.02;;;17.38;;
32393;SDS011;18853;45.426;9.206;2024-02-23T13:49:52;20.17;;;16.83;;
32393;SDS011;18853;45.426;9.206;2024-02-23T13:52:17;19.10;;;15.82;;
32393;SDS011;18853;45.426;9.206;2024-02-23T13:54:43;19.60;;;17.48;;
32393;SDS011;18853;45.426;9.206;2024-02-23T13:57:08;19.60;;;16.20;;
32393;SDS011;18853;45.426;9.206;2024-02-23T13:59:34;21.60;;;16.88;;
32393;SDS011;18853;45.426;9.206;2024-02-23T14:01:59;20.83;;;16.58;;
32393;SDS011;18853;45.426;9.206;2024-02-23T14:04:25;22.42;;;18.10;;
32393;SDS011;18853;45.426;9.206;2024-02-23T14:06:51;23.17;;;17.23;;
32393;SDS011;18853;45.426;9.206;2024-02-23T14:09:17;20.52;;;17.45;;
32393;SDS011;18853;45.426;9.206;2024-02-23T14:11:43;20.55;;;17.38;;
32393;SDS011;18853;45.426;9.206;2024-02-23T14:14:10;19.20;;;17.17;;
32393;SDS011;18853;45.426;9.206;2024-02-23T14:16:35;21.63;;;17.23;;
32393;SDS011;18853;45.426;9.206;2024-02-23T14:19:01;19.70;;;17.17;;
32393;SDS011;18853;45.426;9.206;2024-02-23T14:21:26;20.45;;;16.80;;
32393;SDS011;18853;45.426;9.206;2024-02-23T14:23:52;22.98;;;17.40;;
32393;SDS011;18853;45.426;9.206;2024-02-23T14:26:17;21.55;;;18.50;;
32393;SDS011;18853;45.426;9.206;2024-02-23T14:28:43;24.83;;;19.00;;
32393;SDS011;18853;45.426;9.206;2024-02-23T14:31:09;19.75;;;17.15;;
32393;SDS011;18853;45.426;9.206;2024-02-23T14:33:34;19.63;;;16.35;;